Time;durP1;ratioP1;P1;durP2;ratioP2;P2;SDS_P1;SDS_P2;PMS_P1;PMS_P2;Temp;Humidity;BMP_temperature;BMP_pressure;BME280_temperature;BME280_humidity;BME280_pressure;Samples;Min_cycle;Max_cycle;Signal;HPM_P1;HPM_P2
2023/04/23 00:01:48;;;;;;;5.43;2.80;;;15.30;58.10;;;;;;5133977;27;20432;-68
2023/04/23 00:04:18;;;;;;;4.50;3.00;;;15.30;59.10;;;;;;5133695;27;20525;-68
2023/04/23 00:06:48;;;;;;;4.00;2.73;;;15.20;58.90;;;;;;5133542;27;20429;-68
2023/04/23 00:09:16;;;;;;;3.47;2.10;;;15.20;59.20;;;;;;5133349;27;20425;-68
2023/04/23 00:11:46;;;;;;;3.77;2.20;;;15.20;59.00;;;;;;5118197;27;20509;-68
2023/04/23 00:14:14;;;;;;;3.50;2.40;;;15.20;58.90;;;;;;5115060;27;20546;-69
2023/04/23 00:16:42;;;;;;;2.90;1.70;;;15.10;59.30;;;;;;5119229;27;20823;-68
2023/04/23 00:19:09;;;;;;;3.70;2.13;;;15.10;59.40;;;;;;5115335;27;20485;-68
2023/04/23 00:21:36;;;;;;;4.00;2.43;;;15.10;59.60;;;;;;5117558;27;20533;-68
2023/04/23 00:24:04;;;;;;;3.13;2.47;;;15.00;59.50;;;;;;5115945;27;20434;-68
2023/04/23 00:26:31;;;;;;;3.23;2.70;;;15.00;59.80;;;;;;5117405;27;20439;-68
2023/04/23 00:29:00;;;;;;;4.40;3.50;;;14.90;59.80;;;;;;5114840;27;20933;-68
2023/04/23 00:31:27;;;;;;;5.87;3.60;;;14.90;59.30;;;;;;5118196;27;20430;-68
2023/04/23 00:33:54;;;;;;;7.20;3.10;;;14.90;59.20;;;;;;5115023;27;20486;-68
2023/04/23 00:36:22;;;;;;;4.80;3.10;;;14.90;59.30;;;;;;5115367;27;20442;-68
2023/04/23 00:38:49;;;;;;;7.20;3.80;;;14.80;59.60;;;;;;5115355;27;20983;-68
2023/04/23 00:41:17;;;;;;;4.07;2.77;;;14.80;59.30;;;;;;5124833;27;20842;-68
2023/04/23 00:43:44;;;;;;;4.13;2.47;;;14.80;59.10;;;;;;5134818;27;20445;-68
2023/04/23 00:46:13;;;;;;;6.97;3.33;;;14.80;59.10;;;;;;5115197;28;20442;-68
2023/04/23 00:48:41;;;;;;;3.77;2.67;;;14.80;59.20;;;;;;5115422;28;20768;-68
2023/04/23 00:51:12;;;;;;;3.80;3.23;;;14.70;59.40;;;;;;5134667;27;20528;-68
2023/04/23 00:53:44;;;;;;;3.83;2.40;;;14.70;59.70;;;;;;5115145;28;20434;-68
2023/04/23 00:56:11;;;;;;;7.50;2.80;;;14.60;60.10;;;;;;5134691;27;20931;-68
2023/04/23 00:58:41;;;;;;;4.27;3.23;;;14.60;60.40;;;;;;5135643;27;20514;-68
2023/04/23 01:01:09;;;;;;;3.70;2.87;;;14.50;60.40;;;;;;5134685;27;20437;-68
2023/04/23 01:03:41;;;;;;;6.97;3.33;;;14.50;60.20;;;;;;5114791;28;20438;-68
2023/04/23 01:06:10;;;;;;;4.20;2.60;;;14.50;60.40;;;;;;5133076;27;20434;-68
2023/04/23 01:08:40;;;;;;;3.37;2.70;;;14.50;60.60;;;;;;5135463;27;20445;-68
2023/04/23 01:11:07;;;;;;;4.20;2.87;;;14.50;61.10;;;;;;5135175;27;20437;-68
2023/04/23 01:13:35;;;;;;;5.53;3.63;;;14.50;61.40;;;;;;5134623;27;20502;-68
2023/04/23 01:16:03;;;;;;;4.10;2.63;;;14.50;61.10;;;;;;5134680;27;20501;-68
2023/04/23 01:18:30;;;;;;;4.40;3.30;;;14.50;60.60;;;;;;5135279;27;20791;-67
2023/04/23 01:20:59;;;;;;;13.93;4.30;;;14.50;60.60;;;;;;5135099;27;20433;-67
2023/04/23 01:23:27;;;;;;;5.40;3.33;;;14.50;60.60;;;;;;5134848;27;20512;-68
2023/04/23 01:25:55;;;;;;;4.67;3.57;;;14.50;60.60;;;;;;5134521;27;20513;-67
2023/04/23 01:28:23;;;;;;;6.07;4.03;;;14.50;61.00;;;;;;5135188;27;20441;-67
2023/04/23 01:30:51;;;;;;;5.73;3.80;;;14.40;61.40;;;;;;5134656;27;20457;-67
2023/04/23 01:33:18;;;;;;;5.80;3.67;;;14.30;61.50;;;;;;5134538;27;20795;-68
2023/04/23 01:35:48;;;;;;;5.20;3.17;;;14.30;61.90;;;;;;5134817;27;20472;-67
2023/04/23 01:38:15;;;;;;;6.00;3.83;;;14.30;61.90;;;;;;5134499;27;20425;-67
2023/04/23 01:40:44;;;;;;;5.33;3.03;;;14.30;62.70;;;;;;5135155;27;20485;-67
2023/04/23 01:43:11;;;;;;;5.23;3.80;;;14.30;62.80;;;;;;5134393;27;20433;-68
2023/04/23 01:45:39;;;;;;;6.83;4.20;;;14.30;63.10;;;;;;5134622;27;20510;-67
2023/04/23 01:48:06;;;;;;;4.87;3.67;;;14.30;64.30;;;;;;5134070;27;20437;-67
2023/04/23 01:50:35;;;;;;;5.93;3.47;;;14.20;66.60;;;;;;5133727;27;20524;-67
2023/04/23 01:53:02;;;;;;;4.80;2.90;;;14.20;66.10;;;;;;5133168;27;20473;-67
2023/04/23 01:55:29;;;;;;;3.63;2.53;;;14.20;66.10;;;;;;5134315;27;20429;-67
2023/04/23 01:58:03;;;;;;;3.37;2.37;;;14.30;66.40;;;;;;5133752;27;20440;-67
2023/04/23 02:00:31;;;;;;;5.93;2.80;;;14.20;67.00;;;;;;5134410;27;20479;-67
2023/04/23 02:02:58;;;;;;;6.30;2.63;;;14.20;68.00;;;;;;5133752;27;20433;-67
2023/04/23 02:05:28;;;;;;;3.70;2.03;;;14.20;68.80;;;;;;5134293;27;20437;-68
2023/04/23 02:07:56;;;;;;;3.90;2.37;;;14.10;69.20;;;;;;5134176;27;20494;-67
2023/04/23 02:10:24;;;;;;;5.07;2.50;;;14.10;70.40;;;;;;5133552;27;20433;-67
2023/04/23 02:12:52;;;;;;;3.33;2.47;;;14.10;71.10;;;;;;5133275;27;20472;-67
2023/04/23 02:15:21;;;;;;;4.47;3.20;;;14.10;72.40;;;;;;5134095;27;20500;-68
2023/04/23 02:17:50;;;;;;;5.53;3.00;;;14.10;72.00;;;;;;5133741;27;20437;-67
2023/04/23 02:20:17;;;;;;;4.80;3.27;;;14.10;73.30;;;;;;5134005;27;20477;-67
2023/04/23 02:22:44;;;;;;;4.57;2.30;;;14.10;74.30;;;;;;5133671;27;20512;-67
2023/04/23 02:25:14;;;;;;;5.27;2.97;;;14.10;76.20;;;;;;5133862;27;20437;-67
2023/04/23 02:27:44;;;;;;;3.93;3.10;;;14.00;76.60;;;;;;5133489;27;20465;-67
2023/04/23 02:30:12;;;;;;;3.90;2.67;;;14.00;78.20;;;;;;5133918;27;20443;-67
2023/04/23 02:32:41;;;;;;;3.97;2.83;;;13.90;78.90;;;;;;5132204;27;20514;-67
2023/04/23 02:35:10;;;;;;;4.27;2.70;;;14.00;79.40;;;;;;5133446;27;20863;-67
2023/04/23 02:37:38;;;;;;;4.30;3.00;;;14.00;78.80;;;;;;5134108;27;20787;-67
2023/04/23 02:40:07;;;;;;;5.60;3.20;;;13.90;79.20;;;;;;5133018;27;21263;-67
2023/04/23 02:42:34;;;;;;;4.40;2.93;;;13.90;79.80;;;;;;5133416;27;20429;-68
2023/04/23 02:45:02;;;;;;;5.67;3.50;;;13.90;79.80;;;;;;5133290;27;20480;-68
2023/04/23 02:47:30;;;;;;;4.90;2.80;;;13.90;80.10;;;;;;5133938;27;20433;-66
2023/04/23 02:50:01;;;;;;;4.70;2.73;;;13.90;80.30;;;;;;5133058;27;21010;-67
2023/04/23 02:52:29;;;;;;;4.40;2.63;;;13.80;81.30;;;;;;5133478;27;20447;-67
2023/04/23 02:54:56;;;;;;;3.10;2.57;;;13.80;82.40;;;;;;5132926;27;20545;-67
2023/04/23 02:57:23;;;;;;;5.93;3.30;;;13.80;82.30;;;;;;5133403;27;20996;-67
2023/04/23 02:59:50;;;;;;;7.30;3.37;;;13.70;83.20;;;;;;5132857;27;20476;-67
2023/04/23 03:02:18;;;;;;;4.30;3.20;;;13.70;84.40;;;;;;5133076;27;20438;-68
2023/04/23 03:04:46;;;;;;;4.63;3.70;;;13.70;85.50;;;;;;5133348;27;20448;-67
2023/04/23 03:07:16;;;;;;;4.57;3.30;;;13.60;86.30;;;;;;5132732;27;20469;-67
2023/04/23 03:09:43;;;;;;;5.30;3.67;;;13.60;86.50;;;;;;5132730;27;20196;-67
2023/04/23 03:12:10;;;;;;;4.27;3.37;;;13.60;87.30;;;;;;5112927;28;20442;-67
2023/04/23 03:14:37;;;;;;;7.20;2.90;;;13.60;88.40;;;;;;5112477;28;20433;-68
2023/04/23 03:17:05;;;;;;;4.40;3.43;;;13.70;89.10;;;;;;5132422;28;20549;-67
2023/04/23 03:19:32;;;;;;;4.30;3.30;;;13.70;89.50;;;;;;5132932;28;20477;-67
2023/04/23 03:22:02;;;;;;;5.90;3.70;;;13.70;89.00;;;;;;5133113;28;20441;-66
2023/04/23 03:24:32;;;;;;;4.07;3.13;;;13.70;88.70;;;;;;5133169;28;20429;-67
2023/04/23 03:26:59;;;;;;;6.40;4.80;;;13.70;89.00;;;;;;5131887;28;20441;-67
2023/04/23 03:29:27;;;;;;;5.90;4.40;;;13.70;89.40;;;;;;5132733;28;20509;-67
2023/04/23 03:31:54;;;;;;;5.83;3.80;;;13.60;90.40;;;;;;5132755;28;20437;-67
2023/04/23 03:34:21;;;;;;;4.37;3.60;;;13.60;90.60;;;;;;5132972;28;20440;-67
2023/04/23 03:36:49;;;;;;;5.37;3.13;;;13.60;90.30;;;;;;5132832;28;20494;-67
2023/04/23 03:39:17;;;;;;;8.10;5.00;;;13.60;90.40;;;;;;5132794;28;20473;-68
2023/04/23 03:41:45;;;;;;;4.50;3.43;;;13.50;90.50;;;;;;5132517;28;20520;-67
2023/04/23 03:44:13;;;;;;;7.37;4.30;;;13.50;90.20;;;;;;5132823;28;20448;-67
2023/04/23 03:46:40;;;;;;;4.90;3.70;;;13.60;90.50;;;;;;5133175;28;20445;-68
2023/04/23 03:49:08;;;;;;;4.60;3.03;;;13.60;90.80;;;;;;5132419;28;20516;-68
2023/04/23 03:51:35;;;;;;;4.90;3.83;;;13.50;91.00;;;;;;5131825;28;20915;-68
2023/04/23 03:54:02;;;;;;;5.03;3.53;;;13.50;91.20;;;;;;5132515;28;20491;-68
2023/04/23 03:56:31;;;;;;;4.50;3.63;;;13.50;91.40;;;;;;5132452;28;20437;-68
2023/04/23 03:59:00;;;;;;;7.37;4.40;;;13.50;91.50;;;;;;5132611;28;20472;-68
2023/04/23 04:01:27;;;;;;;5.97;4.60;;;13.50;91.70;;;;;;5132180;28;20518;-68
2023/04/23 04:03:54;;;;;;;7.73;4.97;;;13.50;91.70;;;;;;5132932;28;20437;-68
2023/04/23 04:06:21;;;;;;;5.50;3.47;;;13.50;91.60;;;;;;5132174;28;20564;-68
2023/04/23 04:08:49;;;;;;;7.50;4.07;;;13.50;91.70;;;;;;5132875;28;20425;-68
2023/04/23 04:11:16;;;;;;;7.33;5.53;;;13.50;91.60;;;;;;5132738;28;20430;-68
2023/04/23 04:13:43;;;;;;;5.20;3.90;;;13.40;91.50;;;;;;5134340;27;20461;-68
2023/04/23 04:16:13;;;;;;;5.77;4.57;;;13.40;91.70;;;;;;5136097;27;20475;-68
2023/04/23 04:18:40;;;;;;;5.43;4.25;;;13.40;92.10;;;;;;5135973;27;20606;-68
2023/04/23 04:21:08;;;;;;;6.75;4.05;;;13.40;92.10;;;;;;5136152;27;20222;-68
2023/04/23 04:23:35;;;;;;;4.67;3.80;;;13.40;92.20;;;;;;5136398;27;20275;-68
2023/04/23 04:26:03;;;;;;;4.57;3.73;;;13.40;92.40;;;;;;5135837;27;20438;-68
2023/04/23 04:28:35;;;;;;;8.07;4.90;;;13.40;92.40;;;;;;5136238;27;20441;-68
2023/04/23 04:31:02;;;;;;;7.53;4.33;;;13.40;92.60;;;;;;5136015;27;20476;-68
2023/04/23 04:33:31;;;;;;;3.80;3.00;;;13.40;92.60;;;;;;5135869;27;20937;-68
2023/04/23 04:35:59;;;;;;;4.72;3.67;;;13.40;93.00;;;;;;5135787;27;20444;-68
2023/04/23 04:38:27;;;;;;;4.87;3.10;;;13.40;93.20;;;;;;5135611;27;20271;-68
2023/04/23 04:40:59;;;;;;;4.47;3.10;;;13.30;93.40;;;;;;5135770;27;20493;-68
2023/04/23 04:43:26;;;;;;;5.30;3.20;;;13.40;93.60;;;;;;5135850;27;20434;-68
2023/04/23 04:45:53;;;;;;;5.07;3.67;;;13.30;93.60;;;;;;5135759;27;20437;-68
2023/04/23 04:48:21;;;;;;;4.77;3.80;;;13.40;93.60;;;;;;5135670;27;20433;-68
2023/04/23 04:50:55;;;;;;;4.50;3.30;;;13.40;93.30;;;;;;5136007;27;20436;-67
2023/04/23 04:53:24;;;;;;;10.60;3.47;;;13.40;93.30;;;;;;5135642;27;20786;-68
2023/04/23 04:55:51;;;;;;;4.33;3.30;;;13.40;93.20;;;;;;5135181;27;20444;-69
2023/04/23 04:58:19;;;;;;;4.97;3.50;;;13.40;93.20;;;;;;5135569;27;20438;-68
2023/04/23 05:00:47;;;;;;;4.33;3.63;;;13.30;93.50;;;;;;5135361;27;20507;-67
2023/04/23 05:03:15;;;;;;;5.10;3.28;;;13.30;93.70;;;;;;5136055;27;20512;-68
2023/04/23 05:05:42;;;;;;;6.00;3.50;;;13.40;93.90;;;;;;5134905;27;20583;-68
2023/04/23 05:08:11;;;;;;;9.60;3.40;;;13.40;93.90;;;;;;5135721;27;20865;-68
2023/04/23 05:10:39;;;;;;;7.97;3.30;;;13.40;93.80;;;;;;5135066;27;20460;-68
2023/04/23 05:13:10;;;;;;;5.73;4.40;;;13.40;93.60;;;;;;5135380;27;20448;-68
2023/04/23 05:15:37;;;;;;;4.53;3.20;;;13.40;93.70;;;;;;5134394;27;20986;-68
2023/04/23 05:18:05;;;;;;;7.50;4.00;;;13.50;93.80;;;;;;5135254;27;20497;-67
2023/04/23 05:20:32;;;;;;;6.87;3.30;;;13.50;93.90;;;;;;5134817;27;20484;-68
2023/04/23 05:23:01;;;;;;;4.23;3.40;;;13.50;94.10;;;;;;5135508;27;20829;-68
2023/04/23 05:25:31;;;;;;;5.57;3.72;;;13.50;94.00;;;;;;5134812;27;20510;-68
2023/04/23 05:27:58;;;;;;;4.27;3.83;;;13.60;94.30;;;;;;5134801;27;20179;-68
2023/04/23 05:30:25;;;;;;;5.90;5.00;;;13.60;94.40;;;;;;5134793;27;20437;-68
2023/04/23 05:32:53;;;;;;;9.83;4.23;;;13.60;94.40;;;;;;5134820;27;20525;-67
2023/04/23 05:35:21;;;;;;;9.93;4.87;;;13.60;94.40;;;;;;5135006;27;20453;-68
2023/04/23 05:37:51;;;;;;;7.93;3.70;;;13.60;94.60;;;;;;5134793;27;20528;-68
2023/04/23 05:40:18;;;;;;;4.93;3.57;;;13.60;94.60;;;;;;5134569;27;20469;-68
2023/04/23 05:42:47;;;;;;;6.20;3.70;;;13.60;94.70;;;;;;5135140;27;20521;-68
2023/04/23 05:45:15;;;;;;;5.20;4.03;;;13.60;94.80;;;;;;5134421;27;20437;-68
2023/04/23 05:47:42;;;;;;;4.83;3.33;;;13.60;95.10;;;;;;5134242;27;20459;-68
2023/04/23 05:50:11;;;;;;;4.73;3.30;;;13.70;95.50;;;;;;5134350;27;20470;-68
2023/04/23 05:52:38;;;;;;;6.93;4.30;;;13.70;94.90;;;;;;5134662;27;20429;-68
2023/04/23 05:55:08;;;;;;;5.63;3.90;;;13.80;94.90;;;;;;5134326;27;20433;-68
2023/04/23 05:57:36;;;;;;;4.60;3.70;;;13.80;95.00;;;;;;5134727;27;20434;-68
2023/04/23 06:00:08;;;;;;;5.07;3.83;;;13.90;95.30;;;;;;5134244;27;20457;-68
2023/04/23 06:02:36;;;;;;;5.43;3.87;;;13.90;95.20;;;;;;5134136;27;20444;-68
2023/04/23 06:05:03;;;;;;;7.17;4.00;;;13.90;95.40;;;;;;5133651;27;20511;-68
2023/04/23 06:07:32;;;;;;;5.30;4.20;;;13.90;95.20;;;;;;5134718;27;20438;-68
2023/04/23 06:09:59;;;;;;;4.97;4.17;;;13.90;95.20;;;;;;5134227;27;20461;-68
2023/04/23 06:12:27;;;;;;;7.05;4.47;;;13.90;95.40;;;;;;5134525;27;20923;-67
2023/04/23 06:14:54;;;;;;;4.30;3.57;;;13.90;95.20;;;;;;5133427;27;20278;-68
2023/04/23 06:17:23;;;;;;;8.53;3.63;;;13.90;95.10;;;;;;5134468;27;20438;-67
2023/04/23 06:19:50;;;;;;;4.63;3.97;;;13.90;95.30;;;;;;5134145;27;20434;-68
2023/04/23 06:22:19;;;;;;;5.87;3.73;;;13.90;95.60;;;;;;5134250;27;20433;-68
2023/04/23 06:24:46;;;;;;;4.70;4.20;;;13.90;95.70;;;;;;5133513;27;20438;-68
2023/04/23 06:27:13;;;;;;;6.90;4.60;;;14.00;95.90;;;;;;5134100;27;20434;-68
2023/04/23 06:29:40;;;;;;;5.40;4.17;;;14.00;96.20;;;;;;5133717;27;20825;-68
2023/04/23 06:32:08;;;;;;;7.50;3.80;;;14.10;96.00;;;;;;5133805;27;20876;-68
2023/04/23 06:34:37;;;;;;;4.50;3.53;;;14.10;95.70;;;;;;5133059;27;20646;-68
2023/04/23 06:37:04;;;;;;;4.57;3.67;;;14.10;95.40;;;;;;5132937;27;20433;-68
2023/04/23 06:39:31;;;;;;;4.43;3.53;;;14.20;95.40;;;;;;5133530;27;20585;-68
2023/04/23 06:41:59;;;;;;;6.10;4.20;;;14.20;95.60;;;;;;5133795;27;20476;-67
2023/04/23 06:44:26;;;;;;;3.93;3.30;;;14.20;94.90;;;;;;5133201;27;20478;-68
2023/04/23 06:46:59;;;;;;;7.20;3.97;;;14.20;95.20;;;;;;5133915;27;20433;-68
2023/04/23 06:49:26;;;;;;;4.60;3.90;;;14.20;95.20;;;;;;5133228;27;20445;-68
2023/04/23 06:51:55;;;;;;;10.70;4.37;;;14.20;95.40;;;;;;5133675;27;20518;-68
2023/04/23 06:54:22;;;;;;;5.70;4.27;;;14.20;95.30;;;;;;5133332;27;20433;-67
2023/04/23 06:56:50;;;;;;;5.47;4.40;;;14.20;95.30;;;;;;5133112;27;20436;-68
2023/04/23 06:59:18;;;;;;;4.53;3.60;;;14.20;95.30;;;;;;5133150;27;20437;-68
2023/04/23 07:01:45;;;;;;;5.47;4.40;;;14.30;95.40;;;;;;5133386;27;20483;-68
2023/04/23 07:04:13;;;;;;;4.80;3.60;;;14.20;95.40;;;;;;5133259;27;20455;-68
2023/04/23 07:06:40;;;;;;;5.90;4.87;;;14.30;95.50;;;;;;5133373;27;20442;-68
2023/04/23 07:09:09;;;;;;;5.57;4.13;;;14.40;95.40;;;;;;5132689;27;20441;-68
2023/04/23 07:11:36;;;;;;;5.17;4.23;;;14.40;95.30;;;;;;5133302;27;20955;-68
2023/04/23 07:14:04;;;;;;;5.33;4.17;;;14.40;94.00;;;;;;5132727;27;20461;-68
2023/04/23 07:16:32;;;;;;;3.80;2.70;;;14.50;94.00;;;;;;5133110;27;20552;-67
2023/04/23 07:19:01;;;;;;;5.77;3.83;;;14.60;94.20;;;;;;5133021;28;20433;-68
2023/04/23 07:21:28;;;;;;;5.57;3.67;;;14.70;93.80;;;;;;5133227;28;20480;-68
2023/04/23 07:23:58;;;;;;;5.13;4.00;;;14.80;93.30;;;;;;5132492;28;20453;-68
2023/04/23 07:26:32;;;;;;;3.80;2.73;;;14.80;92.70;;;;;;5132986;28;20437;-68
2023/04/23 07:29:00;;;;;;;5.30;3.70;;;14.80;92.50;;;;;;5132982;28;20433;-68
2023/04/23 07:31:27;;;;;;;5.30;3.60;;;14.90;92.60;;;;;;5132458;28;20520;-68
2023/04/23 07:33:55;;;;;;;7.80;4.50;;;14.90;92.30;;;;;;5132685;28;20796;-68
2023/04/23 07:36:22;;;;;;;4.70;3.90;;;14.90;92.00;;;;;;5132773;28;20523;-69
2023/04/23 07:38:49;;;;;;;6.43;4.40;;;14.90;91.40;;;;;;5133266;28;20433;-68
2023/04/23 07:41:17;;;;;;;4.63;3.70;;;15.00;91.50;;;;;;5127176;28;20481;-68
2023/04/23 07:43:45;;;;;;;4.73;4.00;;;15.10;91.50;;;;;;5126851;28;20433;-68
2023/04/23 07:46:13;;;;;;;7.30;4.43;;;15.20;91.20;;;;;;5130143;28;20429;-68
2023/04/23 07:48:46;;;;;;;4.97;4.00;;;15.40;91.10;;;;;;5131411;27;20938;-68
2023/04/23 07:51:13;;;;;;;5.97;4.27;;;15.50;90.70;;;;;;5119796;27;20437;-68
2023/04/23 07:53:42;;;;;;;5.57;4.40;;;15.80;90.20;;;;;;5117045;27;20471;-68
2023/04/23 07:56:09;;;;;;;5.13;3.67;;;16.00;88.80;;;;;;5115678;27;20529;-68
2023/04/23 07:58:37;;;;;;;5.50;4.03;;;16.20;88.50;;;;;;5115611;27;20921;-68
2023/04/23 08:01:06;;;;;;;5.57;3.70;;;16.30;87.70;;;;;;5117005;27;20820;-68
2023/04/23 08:03:33;;;;;;;4.87;4.30;;;16.40;86.50;;;;;;5118404;27;20448;-68
2023/04/23 08:06:00;;;;;;;6.40;4.80;;;16.50;86.30;;;;;;5117695;27;20434;-68
2023/04/23 08:08:27;;;;;;;3.90;3.17;;;16.60;86.70;;;;;;5133526;27;20433;-68
2023/04/23 08:10:54;;;;;;;3.70;2.83;;;16.70;87.10;;;;;;5133400;27;20437;-68
2023/04/23 08:13:22;;;;;;;5.50;3.30;;;16.70;85.40;;;;;;5133261;27;20884;-68
2023/04/23 08:15:52;;;;;;;5.17;3.87;;;16.70;84.80;;;;;;5133751;27;20457;-68
2023/04/23 08:18:21;;;;;;;3.87;3.47;;;16.80;84.20;;;;;;5133570;27;20520;-68
2023/04/23 08:20:51;;;;;;;5.00;4.00;;;16.80;83.10;;;;;;5133840;27;22072;-68
2023/04/23 08:23:18;;;;;;;4.93;3.83;;;16.80;84.20;;;;;;5132479;27;20437;-68
2023/04/23 08:25:45;;;;;;;11.23;5.23;;;16.80;83.50;;;;;;5115146;27;20452;-68
2023/04/23 08:28:13;;;;;;;5.33;4.10;;;16.80;81.60;;;;;;5121128;27;20426;-68
2023/04/23 08:30:40;;;;;;;5.10;3.70;;;16.70;81.70;;;;;;5133863;27;20531;-68
2023/04/23 08:33:07;;;;;;;5.07;3.60;;;16.60;81.40;;;;;;5132103;27;20437;-68
2023/04/23 08:35:36;;;;;;;5.07;3.93;;;16.60;81.60;;;;;;5123058;27;20430;-68
2023/04/23 08:38:08;;;;;;;4.90;3.70;;;16.50;80.80;;;;;;5131045;27;20501;-68
2023/04/23 08:40:37;;;;;;;5.57;4.70;;;16.50;80.50;;;;;;5115049;27;20434;-68
2023/04/23 08:43:10;;;;;;;5.00;3.80;;;16.50;81.50;;;;;;5131294;27;20505;-68
2023/04/23 08:45:40;;;;;;;4.83;3.87;;;16.60;81.50;;;;;;5115791;27;20470;-68
2023/04/23 08:48:09;;;;;;;4.73;3.60;;;16.80;82.30;;;;;;5115392;27;20449;-68
2023/04/23 08:50:42;;;;;;;5.70;4.30;;;17.00;81.50;;;;;;5114591;27;20835;-68
2023/04/23 08:53:09;;;;;;;3.50;3.07;;;17.30;78.60;;;;;;5114741;27;20450;-68
2023/04/23 08:55:36;;;;;;;4.10;2.40;;;17.70;77.40;;;;;;5115414;27;20442;-68
2023/04/23 08:58:08;;;;;;;6.40;3.77;;;18.10;75.10;;;;;;5132879;27;20516;-68
2023/04/23 09:00:36;;;;;;;4.30;3.10;;;18.60;74.10;;;;;;5132024;27;20550;-68
2023/04/23 09:03:03;;;;;;;4.70;3.13;;;19.30;70.30;;;;;;5132807;27;21082;-68
2023/04/23 09:05:31;;;;;;;4.50;3.73;;;20.10;67.70;;;;;;5131969;27;20437;-68
2023/04/23 09:08:00;;;;;;;4.20;2.73;;;20.90;63.30;;;;;;5132821;27;20844;-68
2023/04/23 09:10:27;;;;;;;3.80;2.53;;;21.70;60.00;;;;;;5119000;27;20439;-68
2023/04/23 09:12:54;;;;;;;3.60;2.60;;;22.10;56.40;;;;;;5114300;27;20470;-68
2023/04/23 09:15:22;;;;;;;4.00;1.83;;;22.00;54.90;;;;;;5132216;27;20457;-68
2023/04/23 09:17:50;;;;;;;3.80;2.37;;;22.30;54.20;;;;;;5132752;27;20434;-68
2023/04/23 09:20:17;;;;;;;2.70;1.90;;;22.70;55.70;;;;;;5123733;27;20434;-68
2023/04/23 09:22:46;;;;;;;3.33;2.20;;;23.20;54.40;;;;;;5127299;27;20560;-68
2023/04/23 09:25:16;;;;;;;3.37;2.13;;;23.60;52.20;;;;;;5114825;27;20487;-68
2023/04/23 09:27:43;;;;;;;3.57;2.20;;;23.60;50.70;;;;;;5116219;27;20438;-68
2023/04/23 09:30:11;;;;;;;3.60;2.50;;;23.90;49.70;;;;;;5113684;27;20473;-68
2023/04/23 09:32:42;;;;;;;5.10;2.57;;;24.30;48.90;;;;;;5113990;27;20488;-68
2023/04/23 09:35:10;;;;;;;3.50;2.30;;;25.00;50.40;;;;;;5114166;27;20445;-68
2023/04/23 09:37:42;;;;;;;3.80;2.50;;;25.40;48.00;;;;;;5113897;27;20441;-69
2023/04/23 09:40:13;;;;;;;4.53;2.73;;;25.60;48.40;;;;;;5131438;27;20519;-69
2023/04/23 09:42:46;;;;;;;3.93;2.90;;;25.60;46.20;;;;;;5132180;27;20480;-69
2023/04/23 09:45:13;;;;;;;4.10;2.53;;;25.40;45.00;;;;;;5126542;27;20469;-69
2023/04/23 09:47:42;;;;;;;6.50;2.87;;;25.10;45.50;;;;;;5113142;28;20525;-68
2023/04/23 09:50:10;;;;;;;3.20;2.10;;;24.70;46.10;;;;;;5113346;27;20442;-69
2023/04/23 09:52:40;;;;;;;3.60;2.50;;;24.30;47.40;;;;;;5129329;27;20838;-69
2023/04/23 09:55:08;;;;;;;3.27;2.43;;;24.10;48.10;;;;;;5131100;27;20437;-68
2023/04/23 09:57:37;;;;;;;4.60;2.33;;;23.90;47.80;;;;;;5131928;27;20518;-69
2023/04/23 10:00:17;;;;;;;3.33;2.20;;;23.90;48.20;;;;;;5131640;27;20979;-68
2023/04/23 10:02:48;;;;;;;5.53;3.10;;;23.90;47.70;;;;;;5118941;27;20477;-68
2023/04/23 10:05:16;;;;;;;4.23;2.43;;;23.90;47.70;;;;;;5131820;27;20437;-68
2023/04/23 10:07:45;;;;;;;4.63;2.83;;;23.70;46.60;;;;;;5121456;27;20442;-68
2023/04/23 10:10:12;;;;;;;3.30;2.10;;;23.70;46.10;;;;;;5117251;27;20502;-69
2023/04/23 10:12:40;;;;;;;3.00;2.13;;;23.80;46.50;;;;;;5115367;27;20430;-68
2023/04/23 10:15:09;;;;;;;2.53;1.73;;;24.10;46.90;;;;;;5126438;27;20446;-68
2023/04/23 10:17:38;;;;;;;3.80;2.13;;;24.40;45.90;;;;;;5130552;27;20927;-68
2023/04/23 10:20:07;;;;;;;3.23;2.20;;;24.60;44.90;;;;;;5125778;27;20479;-68
2023/04/23 10:22:40;;;;;;;4.33;2.50;;;24.60;45.70;;;;;;5122557;27;20530;-69
2023/04/23 10:25:10;;;;;;;3.40;2.20;;;24.70;44.70;;;;;;5119075;27;20923;-68
2023/04/23 10:27:42;;;;;;;3.33;1.87;;;24.70;45.70;;;;;;5120906;27;20460;-69
2023/04/23 10:30:13;;;;;;;3.03;2.17;;;24.90;44.00;;;;;;5118543;27;20466;-69
2023/04/23 10:32:42;;;;;;;2.87;1.97;;;25.10;43.90;;;;;;5123755;27;20911;-69
2023/04/23 10:35:10;;;;;;;3.90;2.37;;;25.00;42.70;;;;;;5119375;27;20473;-68
2023/04/23 10:37:38;;;;;;;3.57;2.20;;;24.70;44.20;;;;;;5119729;27;20439;-68
2023/04/23 10:40:11;;;;;;;2.30;1.50;;;24.30;43.70;;;;;;5121916;27;20476;-69
2023/04/23 10:42:39;;;;;;;3.70;2.10;;;24.00;44.20;;;;;;5122347;27;20571;-68
2023/04/23 10:45:15;;;;;;;2.80;2.07;;;24.10;46.80;;;;;;5124706;27;20441;-69
2023/04/23 10:47:45;;;;;;;2.60;1.70;;;24.30;45.40;;;;;;5122664;27;20489;-68
2023/04/23 10:50:26;;;;;;;2.70;1.80;;;24.20;44.90;;;;;;5118818;27;20446;-69
2023/04/23 10:52:55;;;;;;;2.57;1.80;;;24.00;45.40;;;;;;5117765;27;20448;-68
2023/04/23 10:55:24;;;;;;;3.00;1.67;;;23.90;45.30;;;;;;5122200;27;21007;-69
2023/04/23 10:57:59;;;;;;;4.60;2.20;;;23.80;46.20;;;;;;5116591;27;20433;-69
2023/04/23 11:00:26;;;;;;;3.00;1.80;;;23.70;45.90;;;;;;5120455;27;20520;-69
2023/04/23 11:02:55;;;;;;;2.77;1.80;;;23.60;47.00;;;;;;5124181;27;21074;-69
2023/04/23 11:05:24;;;;;;;4.30;1.97;;;23.60;48.70;;;;;;5120925;27;21015;-68
2023/04/23 11:08:05;;;;;;;3.20;2.23;;;23.60;49.10;;;;;;5121439;27;20450;-68
2023/04/23 11:10:50;;;;;;;3.20;1.90;;;23.70;50.10;;;;;;5122508;27;20441;-68
2023/04/23 11:13:23;;;;;;;3.53;2.20;;;24.10;50.50;;;;;;5119876;27;20476;-69
2023/04/23 11:16:13;;;;;;;2.67;1.50;;;24.50;46.00;;;;;;5115081;27;20466;-68
2023/04/23 11:19:05;;;;;;;2.73;1.70;;;24.60;48.40;;;;;;5124493;27;20445;-69
2023/04/23 11:22:00;;;;;;;2.50;1.47;;;24.70;45.50;;;;;;5118596;28;20951;-69
2023/04/23 11:24:29;;;;;;;2.70;1.70;;;24.80;46.20;;;;;;5129404;27;20494;-68
2023/04/23 11:26:56;;;;;;;2.53;1.57;;;25.00;45.50;;;;;;5127274;27;20459;-68
2023/04/23 11:29:27;;;;;;;2.70;1.83;;;24.90;43.50;;;;;;5127512;27;20436;-69
2023/04/23 11:31:55;;;;;;;3.00;1.60;;;24.80;42.30;;;;;;5129265;27;20923;-69
2023/04/23 11:34:24;;;;;;;2.73;1.50;;;24.60;43.00;;;;;;5131528;27;20464;-69
2023/04/23 11:36:53;;;;;;;4.13;1.67;;;24.40;43.00;;;;;;5129442;27;20475;-69
2023/04/23 11:39:24;;;;;;;2.80;1.57;;;24.30;43.30;;;;;;5128655;27;20464;-68
2023/04/23 11:41:52;;;;;;;2.50;1.83;;;24.30;43.20;;;;;;5134665;27;20465;-69
2023/04/23 11:44:20;;;;;;;2.20;1.33;;;24.20;43.30;;;;;;5126932;27;20514;-69
2023/04/23 11:46:50;;;;;;;2.63;1.53;;;24.10;42.80;;;;;;5131076;27;21011;-68
2023/04/23 11:49:20;;;;;;;3.10;1.67;;;24.00;43.80;;;;;;5130833;27;20449;-68
2023/04/23 11:51:49;;;;;;;2.80;1.80;;;24.00;44.40;;;;;;5130619;27;21665;-68
2023/04/23 11:54:18;;;;;;;2.33;1.60;;;24.10;44.10;;;;;;5129933;27;20441;-69
2023/04/23 11:56:46;;;;;;;2.53;1.47;;;24.30;44.90;;;;;;5121892;27;20438;-69
2023/04/23 11:59:13;;;;;;;2.40;1.27;;;24.60;43.90;;;;;;5130362;27;20841;-69
2023/04/23 12:01:48;;;;;;;4.43;1.90;;;24.60;42.80;;;;;;5126382;27;20446;-68
2023/04/23 12:04:17;;;;;;;2.20;1.30;;;24.50;42.60;;;;;;5130188;27;20432;-68
2023/04/23 12:06:49;;;;;;;4.10;2.30;;;24.40;41.50;;;;;;5123209;27;20506;-69
2023/04/23 12:09:20;;;;;;;2.87;1.77;;;24.50;42.20;;;;;;5130842;27;20443;-69
2023/04/23 12:11:51;;;;;;;3.00;1.57;;;24.70;41.90;;;;;;5123063;27;20438;-68
2023/04/23 12:14:27;;;;;;;2.40;1.43;;;24.90;41.40;;;;;;5126913;27;20441;-69
2023/04/23 12:16:55;;;;;;;6.03;1.37;;;25.00;41.30;;;;;;5128502;27;20468;-68
2023/04/23 12:19:27;;;;;;;2.43;1.10;;;25.30;41.00;;;;;;5127855;27;20436;-69
2023/04/23 12:21:57;;;;;;;2.83;1.60;;;25.50;41.70;;;;;;5126121;27;20448;-69
2023/04/23 12:24:27;;;;;;;3.33;1.23;;;25.60;40.50;;;;;;5129914;27;20472;-69
2023/04/23 12:26:57;;;;;;;3.97;1.77;;;25.70;40.50;;;;;;5125380;27;20437;-68
2023/04/23 12:29:27;;;;;;;3.00;1.43;;;25.60;39.50;;;;;;5125730;27;20445;-69
2023/04/23 12:31:57;;;;;;;3.07;1.70;;;25.50;39.70;;;;;;5128163;27;20462;-68
2023/04/23 12:34:25;;;;;;;2.53;1.50;;;25.50;40.50;;;;;;5121921;27;20437;-68
2023/04/23 12:36:55;;;;;;;4.10;1.87;;;25.50;40.40;;;;;;5124174;27;20469;-68
2023/04/23 12:39:28;;;;;;;2.17;1.10;;;25.60;40.60;;;;;;5123800;27;20528;-69
2023/04/23 12:41:58;;;;;;;3.77;1.37;;;25.60;40.00;;;;;;5121469;27;21014;-69
2023/04/23 12:44:26;;;;;;;3.93;1.53;;;25.50;38.40;;;;;;5123260;27;20524;-68
2023/04/23 12:47:02;;;;;;;5.40;1.80;;;25.30;39.10;;;;;;5125672;27;20498;-69
2023/04/23 12:49:33;;;;;;;3.20;1.53;;;25.20;39.90;;;;;;5122660;27;20452;-69
2023/04/23 12:52:06;;;;;;;5.47;1.47;;;25.00;40.10;;;;;;5125007;27;20525;-68
2023/04/23 12:54:37;;;;;;;2.53;1.30;;;24.90;39.70;;;;;;5126187;27;20447;-69